LPCS

Details ICAO LPCS (CAT)
Name CASCAIS
Region Portugal
Timezone Europe/Lisbon (UTC+1.0)
Plans Departing 262
Arriving 84
Stats Elevation 326 ft / 99 m (AMSL)
Location 38.725200° -9.355260°
Runways 1
Magnetic Variation 2.257° W
Sunrise 2019-05-19 05:23:48 UTC / 2019-05-19 06:23:48 Local
Sunset 2019-05-19 19:46:47 UTC / 2019-05-19 20:46:47 Local
Advertisement - Login to hide

Runways

ID Width Length Bearing (true/mag) Surface Threshold Overrun Markings Lighting
17 98 ft / 30 m 5,664 ft / 1,726 m 164.14° / 166.40° ASPHALT 354 ft / 108 m 0 ft / 0 m APP CENTERLINE EDGE THRESHOLD REIL-OMNI
35 98 ft / 30 m 5,664 ft / 1,726 m 344.14° / 346.40° ASPHALT 574 ft / 175 m 0 ft / 0 m APP CENTERLINE EDGE THRESHOLD REIL-OMNI

Map

Weather


0- 5 10 15 20 25 30 35+ Temperature / °C

Clouds and Precipitation
Forecast for 2019-05-19 06:00 UTC. Updated 3 hours ago

Ground ~20,000 ft ~40,000 ft Winds

METAR

LPCS 190600Z VRB01KT 9999 FEW019 BKN025 14/11 Q1015

TAF

Not found

Frequencies

Ground 121.82 MHz
Tower 119.90 MHz
Tower 120.30 MHz
Warning: Do not use this data for real-world aviation or navigation. No guarantee of current accuracy is given.